sensor_id;sensor_type;location;lat;lon;timestamp;P1;durP1;ratioP1;P2;durP2;ratioP2
11807;SDS011;5961;42.640;23.380;2023-03-23T00:01:56;32.37;;;21.97;;
11807;SDS011;5961;42.640;23.380;2023-03-23T00:04:22;25.60;;;17.83;;
11807;SDS011;5961;42.640;23.380;2023-03-23T00:06:53;27.03;;;17.53;;
11807;SDS011;5961;42.640;23.380;2023-03-23T00:09:20;26.97;;;17.23;;
11807;SDS011;5961;42.640;23.380;2023-03-23T00:11:48;27.37;;;17.97;;
11807;SDS011;5961;42.640;23.380;2023-03-23T00:14:17;26.83;;;18.90;;
11807;SDS011;5961;42.640;23.380;2023-03-23T00:16:47;27.07;;;18.03;;
11807;SDS011;5961;42.640;23.380;2023-03-23T00:19:16;28.97;;;19.40;;
11807;SDS011;5961;42.640;23.380;2023-03-23T00:21:44;33.10;;;21.00;;
11807;SDS011;5961;42.640;23.380;2023-03-23T00:24:14;29.80;;;20.60;;
11807;SDS011;5961;42.640;23.380;2023-03-23T00:26:43;34.90;;;21.50;;
11807;SDS011;5961;42.640;23.380;2023-03-23T00:29:11;34.17;;;23.27;;
11807;SDS011;5961;42.640;23.380;2023-03-23T00:31:40;33.23;;;20.60;;
11807;SDS011;5961;42.640;23.380;2023-03-23T00:34:12;25.83;;;18.23;;
11807;SDS011;5961;42.640;23.380;2023-03-23T00:36:44;20.00;;;15.47;;
11807;SDS011;5961;42.640;23.380;2023-03-23T00:39:13;20.10;;;14.03;;
11807;SDS011;5961;42.640;23.380;2023-03-23T00:41:41;20.17;;;13.67;;
11807;SDS011;5961;42.640;23.380;2023-03-23T00:44:09;17.33;;;12.43;;
11807;SDS011;5961;42.640;23.380;2023-03-23T00:46:41;16.17;;;12.13;;
11807;SDS011;5961;42.640;23.380;2023-03-23T00:49:10;17.67;;;12.67;;
11807;SDS011;5961;42.640;23.380;2023-03-23T00:51:38;14.20;;;11.00;;
11807;SDS011;5961;42.640;23.380;2023-03-23T00:54:05;15.67;;;10.90;;
11807;SDS011;5961;42.640;23.380;2023-03-23T00:56:33;16.00;;;10.90;;
11807;SDS011;5961;42.640;23.380;2023-03-23T00:59:00;15.83;;;10.77;;
11807;SDS011;5961;42.640;23.380;2023-03-23T01:01:27;13.47;;;10.17;;
11807;SDS011;5961;42.640;23.380;2023-03-23T01:03:54;14.90;;;10.73;;
11807;SDS011;5961;42.640;23.380;2023-03-23T01:06:25;15.07;;;10.87;;
11807;SDS011;5961;42.640;23.380;2023-03-23T01:08:53;13.43;;;10.37;;
11807;SDS011;5961;42.640;23.380;2023-03-23T01:11:21;13.47;;;9.77;;
11807;SDS011;5961;42.640;23.380;2023-03-23T01:13:49;13.90;;;10.17;;
11807;SDS011;5961;42.640;23.380;2023-03-23T01:16:16;18.27;;;11.13;;
11807;SDS011;5961;42.640;23.380;2023-03-23T01:18:43;17.30;;;11.53;;
11807;SDS011;5961;42.640;23.380;2023-03-23T01:21:11;23.70;;;14.07;;
11807;SDS011;5961;42.640;23.380;2023-03-23T01:23:40;16.67;;;12.10;;
11807;SDS011;5961;42.640;23.380;2023-03-23T01:26:07;23.43;;;15.60;;
11807;SDS011;5961;42.640;23.380;2023-03-23T01:28:35;21.37;;;15.67;;
11807;SDS011;5961;42.640;23.380;2023-03-23T01:31:05;20.07;;;14.67;;
11807;SDS011;5961;42.640;23.380;2023-03-23T01:33:33;24.27;;;16.53;;
11807;SDS011;5961;42.640;23.380;2023-03-23T01:36:02;19.53;;;13.70;;
11807;SDS011;5961;42.640;23.380;2023-03-23T01:38:30;19.80;;;14.47;;
11807;SDS011;5961;42.640;23.380;2023-03-23T01:40:57;22.30;;;14.47;;
11807;SDS011;5961;42.640;23.380;2023-03-23T01:43:24;27.43;;;18.43;;
11807;SDS011;5961;42.640;23.380;2023-03-23T01:45:51;33.57;;;21.03;;
11807;SDS011;5961;42.640;23.380;2023-03-23T01:48:20;32.07;;;21.67;;
11807;SDS011;5961;42.640;23.380;2023-03-23T01:50:51;36.30;;;22.53;;
11807;SDS011;5961;42.640;23.380;2023-03-23T01:53:21;34.60;;;21.60;;
11807;SDS011;5961;42.640;23.380;2023-03-23T01:55:51;34.53;;;22.33;;
11807;SDS011;5961;42.640;23.380;2023-03-23T01:58:21;35.97;;;22.73;;
11807;SDS011;5961;42.640;23.380;2023-03-23T02:00:53;33.63;;;22.10;;
11807;SDS011;5961;42.640;23.380;2023-03-23T02:03:25;32.00;;;21.40;;
11807;SDS011;5961;42.640;23.380;2023-03-23T02:05:53;31.57;;;21.40;;
11807;SDS011;5961;42.640;23.380;2023-03-23T02:08:23;28.90;;;19.93;;
11807;SDS011;5961;42.640;23.380;2023-03-23T02:10:53;31.50;;;20.63;;
11807;SDS011;5961;42.640;23.380;2023-03-23T02:13:20;25.07;;;17.77;;
11807;SDS011;5961;42.640;23.380;2023-03-23T02:15:49;25.20;;;17.80;;
11807;SDS011;5961;42.640;23.380;2023-03-23T02:18:38;28.00;;;17.87;;
11807;SDS011;5961;42.640;23.380;2023-03-23T02:21:16;26.77;;;18.40;;
11807;SDS011;5961;42.640;23.380;2023-03-23T02:24:09;24.33;;;17.90;;
11807;SDS011;5961;42.640;23.380;2023-03-23T02:26:53;26.60;;;18.30;;
11807;SDS011;5961;42.640;23.380;2023-03-23T02:29:27;25.67;;;17.67;;
11807;SDS011;5961;42.640;23.380;2023-03-23T02:32:20;24.90;;;17.40;;
11807;SDS011;5961;42.640;23.380;2023-03-23T02:34:59;22.73;;;16.97;;
11807;SDS011;5961;42.640;23.380;2023-03-23T02:37:29;22.73;;;15.47;;
11807;SDS011;5961;42.640;23.380;2023-03-23T02:40:02;22.27;;;15.83;;
11807;SDS011;5961;42.640;23.380;2023-03-23T02:42:34;20.37;;;15.17;;
11807;SDS011;5961;42.640;23.380;2023-03-23T02:45:05;17.47;;;13.33;;
11807;SDS011;5961;42.640;23.380;2023-03-23T02:47:34;18.87;;;13.87;;
11807;SDS011;5961;42.640;23.380;2023-03-23T02:50:05;22.80;;;16.17;;
11807;SDS011;5961;42.640;23.380;2023-03-23T02:52:36;23.43;;;16.03;;
11807;SDS011;5961;42.640;23.380;2023-03-23T02:55:05;21.00;;;15.03;;
11807;SDS011;5961;42.640;23.380;2023-03-23T02:57:36;22.23;;;16.00;;
11807;SDS011;5961;42.640;23.380;2023-03-23T03:00:04;21.67;;;14.77;;
11807;SDS011;5961;42.640;23.380;2023-03-23T03:02:35;22.37;;;15.07;;
11807;SDS011;5961;42.640;23.380;2023-03-23T03:05:09;21.57;;;14.77;;
11807;SDS011;5961;42.640;23.380;2023-03-23T03:07:49;20.60;;;15.10;;
11807;SDS011;5961;42.640;23.380;2023-03-23T03:10:28;20.13;;;13.90;;
11807;SDS011;5961;42.640;23.380;2023-03-23T03:13:02;17.57;;;11.53;;
11807;SDS011;5961;42.640;23.380;2023-03-23T03:15:34;14.03;;;10.83;;
11807;SDS011;5961;42.640;23.380;2023-03-23T03:18:06;15.47;;;10.10;;
11807;SDS011;5961;42.640;23.380;2023-03-23T03:20:42;16.07;;;11.33;;
11807;SDS011;5961;42.640;23.380;2023-03-23T03:23:11;15.63;;;11.23;;
11807;SDS011;5961;42.640;23.380;2023-03-23T03:25:41;17.37;;;12.00;;
11807;SDS011;5961;42.640;23.380;2023-03-23T03:28:12;19.37;;;12.67;;
11807;SDS011;5961;42.640;23.380;2023-03-23T03:30:41;17.67;;;12.30;;
11807;SDS011;5961;42.640;23.380;2023-03-23T03:33:11;15.67;;;11.47;;
11807;SDS011;5961;42.640;23.380;2023-03-23T03:35:40;15.47;;;10.30;;
11807;SDS011;5961;42.640;23.380;2023-03-23T03:38:09;15.00;;;10.80;;
11807;SDS011;5961;42.640;23.380;2023-03-23T03:40:37;13.47;;;10.23;;
11807;SDS011;5961;42.640;23.380;2023-03-23T03:43:04;13.53;;;9.73;;
11807;SDS011;5961;42.640;23.380;2023-03-23T03:45:32;15.53;;;10.07;;
11807;SDS011;5961;42.640;23.380;2023-03-23T03:47:59;13.40;;;10.10;;
11807;SDS011;5961;42.640;23.380;2023-03-23T03:50:26;13.50;;;9.97;;
11807;SDS011;5961;42.640;23.380;2023-03-23T03:52:55;14.53;;;10.20;;
11807;SDS011;5961;42.640;23.380;2023-03-23T03:55:22;12.17;;;9.20;;
11807;SDS011;5961;42.640;23.380;2023-03-23T03:57:48;12.83;;;10.17;;
11807;SDS011;5961;42.640;23.380;2023-03-23T04:00:16;15.27;;;10.60;;
11807;SDS011;5961;42.640;23.380;2023-03-23T04:02:44;16.47;;;11.47;;
11807;SDS011;5961;42.640;23.380;2023-03-23T04:05:16;19.47;;;11.57;;
11807;SDS011;5961;42.640;23.380;2023-03-23T04:07:43;14.80;;;10.80;;
11807;SDS011;5961;42.640;23.380;2023-03-23T04:10:15;15.03;;;10.53;;
11807;SDS011;5961;42.640;23.380;2023-03-23T04:12:44;15.93;;;10.73;;
11807;SDS011;5961;42.640;23.380;2023-03-23T04:15:11;15.83;;;10.60;;
11807;SDS011;5961;42.640;23.380;2023-03-23T04:17:38;14.97;;;10.50;;
11807;SDS011;5961;42.640;23.380;2023-03-23T04:20:06;16.07;;;10.47;;
11807;SDS011;5961;42.640;23.380;2023-03-23T04:22:40;14.20;;;9.93;;
11807;SDS011;5961;42.640;23.380;2023-03-23T04:25:08;15.53;;;10.47;;
11807;SDS011;5961;42.640;23.380;2023-03-23T04:27:38;15.67;;;10.30;;
11807;SDS011;5961;42.640;23.380;2023-03-23T04:30:08;14.53;;;10.23;;
11807;SDS011;5961;42.640;23.380;2023-03-23T04:32:37;14.17;;;10.40;;
11807;SDS011;5961;42.640;23.380;2023-03-23T04:35:07;16.07;;;10.43;;
11807;SDS011;5961;42.640;23.380;2023-03-23T04:37:36;16.87;;;11.13;;
11807;SDS011;5961;42.640;23.380;2023-03-23T04:40:04;14.57;;;10.10;;
11807;SDS011;5961;42.640;23.380;2023-03-23T04:42:38;14.57;;;11.20;;
11807;SDS011;5961;42.640;23.380;2023-03-23T04:45:06;16.50;;;10.80;;
11807;SDS011;5961;42.640;23.380;2023-03-23T04:47:35;15.70;;;11.60;;
11807;SDS011;5961;42.640;23.380;2023-03-23T04:50:06;16.90;;;10.97;;
11807;SDS011;5961;42.640;23.380;2023-03-23T04:52:34;16.07;;;11.37;;
11807;SDS011;5961;42.640;23.380;2023-03-23T04:55:03;15.53;;;10.97;;
11807;SDS011;5961;42.640;23.380;2023-03-23T04:57:30;16.37;;;11.47;;
11807;SDS011;5961;42.640;23.380;2023-03-23T04:59:59;16.10;;;12.20;;
11807;SDS011;5961;42.640;23.380;2023-03-23T05:02:26;18.03;;;12.03;;
11807;SDS011;5961;42.640;23.380;2023-03-23T05:04:55;17.47;;;11.47;;
11807;SDS011;5961;42.640;23.380;2023-03-23T05:07:22;17.47;;;10.83;;
11807;SDS011;5961;42.640;23.380;2023-03-23T05:09:49;18.27;;;11.57;;
11807;SDS011;5961;42.640;23.380;2023-03-23T05:12:16;18.53;;;13.33;;
11807;SDS011;5961;42.640;23.380;2023-03-23T05:14:42;18.47;;;13.13;;
11807;SDS011;5961;42.640;23.380;2023-03-23T05:17:11;15.77;;;11.07;;
11807;SDS011;5961;42.640;23.380;2023-03-23T05:19:41;15.93;;;10.50;;
11807;SDS011;5961;42.640;23.380;2023-03-23T05:22:09;14.07;;;10.43;;
11807;SDS011;5961;42.640;23.380;2023-03-23T05:24:37;17.63;;;11.37;;
11807;SDS011;5961;42.640;23.380;2023-03-23T05:27:04;15.47;;;11.23;;
11807;SDS011;5961;42.640;23.380;2023-03-23T05:29:33;18.53;;;12.73;;
11807;SDS011;5961;42.640;23.380;2023-03-23T05:32:01;15.43;;;11.73;;
11807;SDS011;5961;42.640;23.380;2023-03-23T05:34:29;13.33;;;10.63;;
11807;SDS011;5961;42.640;23.380;2023-03-23T05:36:57;22.13;;;13.93;;
11807;SDS011;5961;42.640;23.380;2023-03-23T05:39:24;20.37;;;13.27;;
11807;SDS011;5961;42.640;23.380;2023-03-23T05:41:51;20.70;;;14.70;;
11807;SDS011;5961;42.640;23.380;2023-03-23T05:44:18;28.37;;;15.63;;
11807;SDS011;5961;42.640;23.380;2023-03-23T05:46:45;22.07;;;15.83;;
11807;SDS011;5961;42.640;23.380;2023-03-23T05:49:12;23.50;;;17.07;;
11807;SDS011;5961;42.640;23.380;2023-03-23T05:51:42;29.67;;;17.77;;
11807;SDS011;5961;42.640;23.380;2023-03-23T05:54:10;24.20;;;16.73;;
11807;SDS011;5961;42.640;23.380;2023-03-23T05:56:38;23.07;;;15.73;;
11807;SDS011;5961;42.640;23.380;2023-03-23T05:59:05;23.10;;;15.80;;
11807;SDS011;5961;42.640;23.380;2023-03-23T06:01:31;23.63;;;15.43;;
11807;SDS011;5961;42.640;23.380;2023-03-23T06:03:58;16.80;;;11.97;;
11807;SDS011;5961;42.640;23.380;2023-03-23T06:06:25;17.40;;;12.47;;
11807;SDS011;5961;42.640;23.380;2023-03-23T06:08:54;20.77;;;11.87;;
11807;SDS011;5961;42.640;23.380;2023-03-23T06:11:22;14.97;;;10.37;;
11807;SDS011;5961;42.640;23.380;2023-03-23T06:13:49;14.03;;;10.17;;
11807;SDS011;5961;42.640;23.380;2023-03-23T06:16:16;15.57;;;11.07;;
11807;SDS011;5961;42.640;23.380;2023-03-23T06:18:43;15.63;;;11.63;;
11807;SDS011;5961;42.640;23.380;2023-03-23T06:21:09;13.70;;;11.23;;
11807;SDS011;5961;42.640;23.380;2023-03-23T06:23:36;14.93;;;11.30;;
11807;SDS011;5961;42.640;23.380;2023-03-23T06:26:05;13.43;;;10.17;;
11807;SDS011;5961;42.640;23.380;2023-03-23T06:28:33;16.07;;;12.30;;
11807;SDS011;5961;42.640;23.380;2023-03-23T06:31:00;16.17;;;11.57;;
11807;SDS011;5961;42.640;23.380;2023-03-23T06:33:28;14.00;;;10.10;;
11807;SDS011;5961;42.640;23.380;2023-03-23T06:35:55;14.17;;;10.93;;
11807;SDS011;5961;42.640;23.380;2023-03-23T06:38:22;16.20;;;11.73;;
11807;SDS011;5961;42.640;23.380;2023-03-23T06:40:51;18.60;;;13.20;;
11807;SDS011;5961;42.640;23.380;2023-03-23T06:43:19;19.13;;;13.37;;
11807;SDS011;5961;42.640;23.380;2023-03-23T06:45:46;20.00;;;13.30;;
11807;SDS011;5961;42.640;23.380;2023-03-23T06:48:13;20.93;;;13.33;;
11807;SDS011;5961;42.640;23.380;2023-03-23T06:50:42;16.13;;;11.67;;
11807;SDS011;5961;42.640;23.380;2023-03-23T06:53:09;27.00;;;19.00;;
11807;SDS011;5961;42.640;23.380;2023-03-23T06:55:36;19.83;;;13.40;;
11807;SDS011;5961;42.640;23.380;2023-03-23T06:58:03;23.07;;;14.13;;
11807;SDS011;5961;42.640;23.380;2023-03-23T07:00:32;20.83;;;13.20;;
11807;SDS011;5961;42.640;23.380;2023-03-23T07:02:59;18.90;;;12.93;;
11807;SDS011;5961;42.640;23.380;2023-03-23T07:05:26;18.60;;;12.03;;
11807;SDS011;5961;42.640;23.380;2023-03-23T07:07:52;19.03;;;12.77;;
11807;SDS011;5961;42.640;23.380;2023-03-23T07:10:19;26.27;;;17.10;;
11807;SDS011;5961;42.640;23.380;2023-03-23T07:12:46;17.70;;;13.87;;
11807;SDS011;5961;42.640;23.380;2023-03-23T07:15:13;20.50;;;14.93;;
11807;SDS011;5961;42.640;23.380;2023-03-23T07:17:41;26.07;;;17.17;;
11807;SDS011;5961;42.640;23.380;2023-03-23T07:20:08;27.57;;;18.77;;
11807;SDS011;5961;42.640;23.380;2023-03-23T07:22:36;24.23;;;18.27;;
11807;SDS011;5961;42.640;23.380;2023-03-23T07:25:03;26.73;;;19.43;;
11807;SDS011;5961;42.640;23.380;2023-03-23T07:27:30;29.70;;;21.30;;
11807;SDS011;5961;42.640;23.380;2023-03-23T07:29:57;30.13;;;18.63;;
11807;SDS011;5961;42.640;23.380;2023-03-23T07:32:24;31.37;;;21.23;;
11807;SDS011;5961;42.640;23.380;2023-03-23T07:34:52;32.70;;;20.27;;
11807;SDS011;5961;42.640;23.380;2023-03-23T07:37:19;29.27;;;21.03;;
11807;SDS011;5961;42.640;23.380;2023-03-23T07:39:46;32.60;;;21.30;;
11807;SDS011;5961;42.640;23.380;2023-03-23T07:42:13;36.37;;;22.30;;
11807;SDS011;5961;42.640;23.380;2023-03-23T07:44:39;38.63;;;21.77;;
11807;SDS011;5961;42.640;23.380;2023-03-23T07:47:06;34.03;;;22.07;;
11807;SDS011;5961;42.640;23.380;2023-03-23T07:49:33;32.83;;;20.77;;
11807;SDS011;5961;42.640;23.380;2023-03-23T07:52:02;29.73;;;21.63;;
11807;SDS011;5961;42.640;23.380;2023-03-23T07:54:29;31.27;;;19.77;;
11807;SDS011;5961;42.640;23.380;2023-03-23T07:56:56;31.63;;;20.00;;
11807;SDS011;5961;42.640;23.380;2023-03-23T07:59:22;31.10;;;19.80;;
11807;SDS011;5961;42.640;23.380;2023-03-23T08:01:49;32.07;;;21.67;;
11807;SDS011;5961;42.640;23.380;2023-03-23T08:04:16;30.73;;;19.87;;
11807;SDS011;5961;42.640;23.380;2023-03-23T08:06:43;30.20;;;19.33;;
11807;SDS011;5961;42.640;23.380;2023-03-23T08:09:11;28.27;;;18.17;;
11807;SDS011;5961;42.640;23.380;2023-03-23T08:11:38;26.63;;;19.07;;
11807;SDS011;5961;42.640;23.380;2023-03-23T08:14:05;28.43;;;18.63;;
11807;SDS011;5961;42.640;23.380;2023-03-23T08:16:31;29.40;;;20.60;;
11807;SDS011;5961;42.640;23.380;2023-03-23T08:18:59;36.70;;;21.60;;
11807;SDS011;5961;42.640;23.380;2023-03-23T08:21:26;29.40;;;19.30;;
11807;SDS011;5961;42.640;23.380;2023-03-23T08:23:52;32.17;;;20.80;;
11807;SDS011;5961;42.640;23.380;2023-03-23T08:26:21;30.87;;;20.00;;
11807;SDS011;5961;42.640;23.380;2023-03-23T08:28:48;31.73;;;18.87;;
11807;SDS011;5961;42.640;23.380;2023-03-23T08:31:15;23.73;;;17.57;;
11807;SDS011;5961;42.640;23.380;2023-03-23T08:33:42;26.97;;;18.23;;
11807;SDS011;5961;42.640;23.380;2023-03-23T08:36:08;25.17;;;16.23;;
11807;SDS011;5961;42.640;23.380;2023-03-23T08:38:35;27.33;;;17.10;;
11807;SDS011;5961;42.640;23.380;2023-03-23T08:41:03;22.97;;;16.13;;
11807;SDS011;5961;42.640;23.380;2023-03-23T08:43:34;30.10;;;16.87;;
11807;SDS011;5961;42.640;23.380;2023-03-23T08:46:01;19.87;;;14.50;;
11807;SDS011;5961;42.640;23.380;2023-03-23T08:48:34;18.80;;;13.07;;
11807;SDS011;5961;42.640;23.380;2023-03-23T08:51:01;18.00;;;12.07;;
11807;SDS011;5961;42.640;23.380;2023-03-23T08:53:29;15.33;;;10.50;;
11807;SDS011;5961;42.640;23.380;2023-03-23T08:55:56;13.03;;;8.70;;
11807;SDS011;5961;42.640;23.380;2023-03-23T08:58:28;13.27;;;8.30;;
11807;SDS011;5961;42.640;23.380;2023-03-23T09:00:56;14.70;;;8.60;;
11807;SDS011;5961;42.640;23.380;2023-03-23T09:03:24;13.97;;;9.77;;
11807;SDS011;5961;42.640;23.380;2023-03-23T09:05:50;13.60;;;10.00;;
11807;SDS011;5961;42.640;23.380;2023-03-23T09:08:18;11.97;;;9.10;;
11807;SDS011;5961;42.640;23.380;2023-03-23T09:10:46;10.77;;;7.90;;
11807;SDS011;5961;42.640;23.380;2023-03-23T09:13:14;14.70;;;7.93;;
11807;SDS011;5961;42.640;23.380;2023-03-23T09:15:41;11.70;;;8.60;;
11807;SDS011;5961;42.640;23.380;2023-03-23T09:18:09;12.63;;;7.57;;
11807;SDS011;5961;42.640;23.380;2023-03-23T09:20:36;12.00;;;8.60;;
11807;SDS011;5961;42.640;23.380;2023-03-23T09:23:03;12.97;;;8.83;;
11807;SDS011;5961;42.640;23.380;2023-03-23T09:25:30;11.53;;;8.30;;
11807;SDS011;5961;42.640;23.380;2023-03-23T09:27:58;11.37;;;8.43;;
11807;SDS011;5961;42.640;23.380;2023-03-23T09:30:27;10.10;;;8.00;;
11807;SDS011;5961;42.640;23.380;2023-03-23T09:32:55;11.37;;;8.80;;
11807;SDS011;5961;42.640;23.380;2023-03-23T09:35:24;15.37;;;10.83;;
11807;SDS011;5961;42.640;23.380;2023-03-23T09:37:53;11.07;;;7.73;;
11807;SDS011;5961;42.640;23.380;2023-03-23T09:40:21;10.13;;;8.00;;
11807;SDS011;5961;42.640;23.380;2023-03-23T09:42:55;8.97;;;7.10;;
11807;SDS011;5961;42.640;23.380;2023-03-23T09:45:31;12.20;;;7.23;;
11807;SDS011;5961;42.640;23.380;2023-03-23T09:48:14;11.97;;;8.20;;
11807;SDS011;5961;42.640;23.380;2023-03-23T09:50:57;8.80;;;7.20;;
11807;SDS011;5961;42.640;23.380;2023-03-23T09:53:32;8.87;;;7.07;;
11807;SDS011;5961;42.640;23.380;2023-03-23T09:56:08;9.80;;;7.93;;
11807;SDS011;5961;42.640;23.380;2023-03-23T09:58:39;9.90;;;6.97;;
11807;SDS011;5961;42.640;23.380;2023-03-23T10:01:13;8.57;;;6.70;;
11807;SDS011;5961;42.640;23.380;2023-03-23T10:03:44;9.23;;;7.00;;
11807;SDS011;5961;42.640;23.380;2023-03-23T10:06:14;11.00;;;6.67;;
11807;SDS011;5961;42.640;23.380;2023-03-23T10:08:45;12.83;;;6.80;;
11807;SDS011;5961;42.640;23.380;2023-03-23T10:11:14;8.20;;;6.20;;
11807;SDS011;5961;42.640;23.380;2023-03-23T10:16:42;10.87;;;8.60;;
11807;SDS011;5961;42.640;23.380;2023-03-23T10:19:17;8.63;;;7.03;;
11807;SDS011;5961;42.640;23.380;2023-03-23T10:21:50;9.60;;;7.00;;
11807;SDS011;5961;42.640;23.380;2023-03-23T10:24:19;14.00;;;10.70;;
11807;SDS011;5961;42.640;23.380;2023-03-23T10:26:53;11.50;;;9.03;;
11807;SDS011;5961;42.640;23.380;2023-03-23T10:29:27;18.83;;;11.63;;
11807;SDS011;5961;42.640;23.380;2023-03-23T10:31:58;17.33;;;12.43;;
11807;SDS011;5961;42.640;23.380;2023-03-23T10:34:28;23.90;;;14.40;;
11807;SDS011;5961;42.640;23.380;2023-03-23T10:37:02;15.73;;;9.70;;
11807;SDS011;5961;42.640;23.380;2023-03-23T10:39:32;11.00;;;8.30;;
11807;SDS011;5961;42.640;23.380;2023-03-23T10:42:08;9.40;;;6.90;;
11807;SDS011;5961;42.640;23.380;2023-03-23T10:44:35;9.10;;;7.03;;
11807;SDS011;5961;42.640;23.380;2023-03-23T10:47:02;12.63;;;8.97;;
11807;SDS011;5961;42.640;23.380;2023-03-23T10:49:32;8.07;;;6.70;;
11807;SDS011;5961;42.640;23.380;2023-03-23T10:52:07;13.37;;;8.73;;
11807;SDS011;5961;42.640;23.380;2023-03-23T10:54:46;23.53;;;14.43;;
11807;SDS011;5961;42.640;23.380;2023-03-23T10:57:25;21.33;;;15.13;;
11807;SDS011;5961;42.640;23.380;2023-03-23T11:00:00;14.90;;;10.83;;
11807;SDS011;5961;42.640;23.380;2023-03-23T11:02:35;16.37;;;10.00;;
11807;SDS011;5961;42.640;23.380;2023-03-23T11:05:06;8.97;;;7.00;;
11807;SDS011;5961;42.640;23.380;2023-03-23T11:07:41;8.90;;;6.67;;
11807;SDS011;5961;42.640;23.380;2023-03-23T11:10:16;10.63;;;8.40;;
11807;SDS011;5961;42.640;23.380;2023-03-23T11:12:49;10.50;;;7.40;;
11807;SDS011;5961;42.640;23.380;2023-03-23T11:18:08;7.33;;;6.33;;
11807;SDS011;5961;42.640;23.380;2023-03-23T11:20:37;11.07;;;7.57;;
11807;SDS011;5961;42.640;23.380;2023-03-23T11:23:18;10.50;;;7.67;;
11807;SDS011;5961;42.640;23.380;2023-03-23T11:25:50;10.43;;;7.73;;
11807;SDS011;5961;42.640;23.380;2023-03-23T11:28:20;9.60;;;7.57;;
11807;SDS011;5961;42.640;23.380;2023-03-23T11:30:48;9.47;;;6.50;;
11807;SDS011;5961;42.640;23.380;2023-03-23T11:33:15;11.27;;;7.57;;
11807;SDS011;5961;42.640;23.380;2023-03-23T11:35:43;7.87;;;6.43;;
11807;SDS011;5961;42.640;23.380;2023-03-23T11:38:14;8.60;;;6.80;;
11807;SDS011;5961;42.640;23.380;2023-03-23T11:40:47;9.40;;;7.50;;
11807;SDS011;5961;42.640;23.380;2023-03-23T11:43:20;10.50;;;8.00;;
11807;SDS011;5961;42.640;23.380;2023-03-23T11:45:51;9.03;;;7.33;;
11807;SDS011;5961;42.640;23.380;2023-03-23T11:48:27;10.23;;;7.57;;
11807;SDS011;5961;42.640;23.380;2023-03-23T11:51:01;8.90;;;6.73;;
11807;SDS011;5961;42.640;23.380;2023-03-23T11:53:37;8.97;;;6.70;;
11807;SDS011;5961;42.640;23.380;2023-03-23T11:56:12;7.60;;;6.50;;
11807;SDS011;5961;42.640;23.380;2023-03-23T11:58:44;10.33;;;6.80;;
11807;SDS011;5961;42.640;23.380;2023-03-23T12:01:13;9.47;;;7.17;;
11807;SDS011;5961;42.640;23.380;2023-03-23T12:07:00;7.27;;;6.53;;
11807;SDS011;5961;42.640;23.380;2023-03-23T12:09:41;7.20;;;6.13;;
11807;SDS011;5961;42.640;23.380;2023-03-23T12:12:16;9.43;;;6.93;;
11807;SDS011;5961;42.640;23.380;2023-03-23T12:14:50;8.10;;;6.50;;
11807;SDS011;5961;42.640;23.380;2023-03-23T12:17:30;7.80;;;6.03;;
11807;SDS011;5961;42.640;23.380;2023-03-23T12:20:16;9.40;;;7.27;;
11807;SDS011;5961;42.640;23.380;2023-03-23T12:23:00;9.80;;;6.83;;
11807;SDS011;5961;42.640;23.380;2023-03-23T12:25:42;7.93;;;6.13;;
11807;SDS011;5961;42.640;23.380;2023-03-23T12:28:24;7.57;;;6.70;;
11807;SDS011;5961;42.640;23.380;2023-03-23T12:31:06;7.97;;;6.30;;
11807;SDS011;5961;42.640;23.380;2023-03-23T12:33:44;6.87;;;6.07;;
11807;SDS011;5961;42.640;23.380;2023-03-23T12:36:19;8.17;;;6.43;;
11807;SDS011;5961;42.640;23.380;2023-03-23T12:38:57;7.20;;;6.50;;
11807;SDS011;5961;42.640;23.380;2023-03-23T12:41:40;8.73;;;6.67;;
11807;SDS011;5961;42.640;23.380;2023-03-23T12:44:13;7.37;;;6.47;;
11807;SDS011;5961;42.640;23.380;2023-03-23T12:46:46;7.50;;;6.17;;
11807;SDS011;5961;42.640;23.380;2023-03-23T12:49:24;6.23;;;5.50;;
11807;SDS011;5961;42.640;23.380;2023-03-23T12:51:57;6.00;;;5.40;;
11807;SDS011;5961;42.640;23.380;2023-03-23T12:54:31;11.50;;;5.90;;
11807;SDS011;5961;42.640;23.380;2023-03-23T12:57:05;6.43;;;5.80;;
11807;SDS011;5961;42.640;23.380;2023-03-23T12:59:38;7.00;;;5.50;;
11807;SDS011;5961;42.640;23.380;2023-03-23T13:02:13;7.13;;;5.37;;
11807;SDS011;5961;42.640;23.380;2023-03-23T13:04:45;7.13;;;5.63;;
11807;SDS011;5961;42.640;23.380;2023-03-23T13:07:21;6.53;;;5.37;;
11807;SDS011;5961;42.640;23.380;2023-03-23T13:09:53;8.17;;;6.07;;
11807;SDS011;5961;42.640;23.380;2023-03-23T13:12:26;8.00;;;5.93;;
11807;SDS011;5961;42.640;23.380;2023-03-23T13:14:57;6.80;;;6.10;;
11807;SDS011;5961;42.640;23.380;2023-03-23T13:17:35;8.23;;;6.07;;
11807;SDS011;5961;42.640;23.380;2023-03-23T13:23:14;10.20;;;6.57;;
11807;SDS011;5961;42.640;23.380;2023-03-23T13:25:49;13.37;;;8.23;;
11807;SDS011;5961;42.640;23.380;2023-03-23T13:28:21;10.53;;;7.53;;
11807;SDS011;5961;42.640;23.380;2023-03-23T13:30:55;11.77;;;8.20;;
11807;SDS011;5961;42.640;23.380;2023-03-23T13:33:23;8.60;;;7.40;;
11807;SDS011;5961;42.640;23.380;2023-03-23T13:35:51;12.13;;;9.03;;
11807;SDS011;5961;42.640;23.380;2023-03-23T13:38:19;7.77;;;7.00;;
11807;SDS011;5961;42.640;23.380;2023-03-23T13:40:50;11.40;;;7.63;;
11807;SDS011;5961;42.640;23.380;2023-03-23T13:43:27;10.57;;;6.10;;
11807;SDS011;5961;42.640;23.380;2023-03-23T13:46:06;12.63;;;9.40;;
11807;SDS011;5961;42.640;23.380;2023-03-23T13:48:45;10.93;;;8.53;;
11807;SDS011;5961;42.640;23.380;2023-03-23T13:51:24;9.43;;;8.07;;
11807;SDS011;5961;42.640;23.380;2023-03-23T13:54:12;8.50;;;6.97;;
11807;SDS011;5961;42.640;23.380;2023-03-23T13:56:41;8.77;;;7.67;;
11807;SDS011;5961;42.640;23.380;2023-03-23T13:59:15;12.90;;;8.67;;
11807;SDS011;5961;42.640;23.380;2023-03-23T14:01:43;7.80;;;6.27;;
11807;SDS011;5961;42.640;23.380;2023-03-23T14:04:11;9.30;;;7.50;;
11807;SDS011;5961;42.640;23.380;2023-03-23T14:06:40;11.87;;;9.03;;
11807;SDS011;5961;42.640;23.380;2023-03-23T14:09:11;9.67;;;8.43;;
11807;SDS011;5961;42.640;23.380;2023-03-23T14:11:45;11.53;;;8.50;;
11807;SDS011;5961;42.640;23.380;2023-03-23T14:14:20;13.43;;;8.37;;
11807;SDS011;5961;42.640;23.380;2023-03-23T14:16:51;7.73;;;6.93;;
11807;SDS011;5961;42.640;23.380;2023-03-23T14:19:20;9.37;;;7.87;;
11807;SDS011;5961;42.640;23.380;2023-03-23T14:21:50;9.60;;;8.43;;
11807;SDS011;5961;42.640;23.380;2023-03-23T14:24:20;7.93;;;6.77;;
11807;SDS011;5961;42.640;23.380;2023-03-23T14:26:49;18.43;;;13.97;;
11807;SDS011;5961;42.640;23.380;2023-03-23T14:29:20;10.23;;;8.53;;
11807;SDS011;5961;42.640;23.380;2023-03-23T14:31:52;7.87;;;6.20;;
11807;SDS011;5961;42.640;23.380;2023-03-23T14:34:21;7.50;;;5.80;;
11807;SDS011;5961;42.640;23.380;2023-03-23T14:36:52;7.87;;;6.43;;
11807;SDS011;5961;42.640;23.380;2023-03-23T14:39:22;9.07;;;7.73;;
11807;SDS011;5961;42.640;23.380;2023-03-23T14:41:51;7.77;;;6.97;;
11807;SDS011;5961;42.640;23.380;2023-03-23T14:44:23;13.13;;;8.00;;
11807;SDS011;5961;42.640;23.380;2023-03-23T14:46:52;8.73;;;6.63;;
11807;SDS011;5961;42.640;23.380;2023-03-23T14:49:22;8.20;;;7.00;;
11807;SDS011;5961;42.640;23.380;2023-03-23T14:52:02;8.47;;;6.67;;
11807;SDS011;5961;42.640;23.380;2023-03-23T14:54:34;8.30;;;7.50;;
11807;SDS011;5961;42.640;23.380;2023-03-23T14:57:03;8.97;;;6.97;;
11807;SDS011;5961;42.640;23.380;2023-03-23T14:59:40;9.13;;;7.17;;